createdAt,value
2018-09-15T00:01:35.788Z,1.13
2018-09-15T00:04:02.556Z,1.37
2018-09-15T00:06:29.295Z,1.20
2018-09-15T00:08:56.218Z,1.20
2018-09-15T00:11:23.642Z,1.20
2018-09-15T00:13:51.126Z,1.00
2018-09-15T00:16:18.615Z,1.13
2018-09-15T00:18:45.317Z,1.00
2018-09-15T00:21:12.814Z,1.20
2018-09-15T00:23:39.599Z,1.40
2018-09-15T00:26:06.341Z,1.20
2018-09-15T00:28:33.744Z,1.10
2018-09-15T00:31:00.486Z,1.37
2018-09-15T00:33:27.179Z,1.30
2018-09-15T00:35:54.642Z,1.30
2018-09-15T00:38:21.489Z,1.70
2018-09-15T00:40:48.935Z,1.30
2018-09-15T00:43:15.719Z,1.40
2018-09-15T00:45:42.461Z,1.30
2018-09-15T00:48:09.155Z,1.17
2018-09-15T00:50:36.811Z,1.40
2018-09-15T00:53:03.526Z,1.37
2018-09-15T00:55:30.201Z,1.00
2018-09-15T00:57:57.896Z,1.13
2018-09-15T01:00:24.617Z,1.30
2018-09-15T01:02:52.022Z,1.20
2018-09-15T01:05:18.993Z,1.20
2018-09-15T01:07:46.478Z,1.20
2018-09-15T01:10:13.942Z,1.27
2018-09-15T01:12:41.453Z,1.20
2018-09-15T01:15:08.233Z,1.27
2018-09-15T01:17:34.968Z,1.17
2018-09-15T01:20:02.473Z,1.40
2018-09-15T01:22:29.175Z,0.90
2018-09-15T01:24:56.645Z,1.37
2018-09-15T01:27:23.396Z,1.20
2018-09-15T01:29:50.072Z,1.73
2018-09-15T01:32:16.856Z,1.23
2018-09-15T01:34:44.280Z,1.37
2018-09-15T01:37:10.950Z,1.13
2018-09-15T01:39:38.447Z,1.10
2018-09-15T01:42:05.198Z,1.17
2018-09-15T01:44:31.864Z,1.10
2018-09-15T01:46:58.659Z,1.00
2018-09-15T01:49:25.395Z,1.00
2018-09-15T01:51:52.301Z,1.30
2018-09-15T01:54:19.379Z,1.20
2018-09-15T01:56:46.061Z,1.17
2018-09-15T01:59:12.773Z,1.20
2018-09-15T02:01:39.616Z,1.23
2018-09-15T02:04:06.324Z,1.30
2018-09-15T02:06:32.992Z,1.33
2018-09-15T02:08:59.735Z,0.90
2018-09-15T02:11:26.428Z,1.10
2018-09-15T02:13:53.250Z,1.30
2018-09-15T02:16:20.090Z,1.00
2018-09-15T02:18:46.803Z,1.10
2018-09-15T02:21:13.478Z,1.07
2018-09-15T02:23:40.324Z,1.10
2018-09-15T02:26:07.072Z,1.13
2018-09-15T02:28:34.550Z,1.20
2018-09-15T02:31:02.051Z,0.80
2018-09-15T02:33:28.788Z,1.10
2018-09-15T02:35:55.469Z,1.13
2018-09-15T02:38:23.677Z,0.97
2018-09-15T02:40:50.685Z,1.07
2018-09-15T02:43:17.461Z,1.10
2018-09-15T02:45:44.184Z,1.47
2018-09-15T02:48:11.644Z,1.20
2018-09-15T02:50:39.057Z,1.00
2018-09-15T02:53:05.828Z,1.03
2018-09-15T02:55:32.663Z,1.30
2018-09-15T02:57:59.347Z,0.93
2018-09-15T03:00:26.039Z,1.10
2018-09-15T03:02:52.752Z,1.00
2018-09-15T03:05:19.469Z,0.87
2018-09-15T03:07:46.211Z,1.50
2018-09-15T03:10:12.975Z,0.93
2018-09-15T03:12:39.680Z,0.90
2018-09-15T03:15:06.469Z,0.80
2018-09-15T03:17:33.251Z,1.20
2018-09-15T03:20:00.756Z,1.03
2018-09-15T03:22:27.542Z,1.03
2018-09-15T03:24:55.014Z,1.17
2018-09-15T03:27:28.741Z,1.23
2018-09-15T03:29:55.478Z,1.10
2018-09-15T03:32:22.204Z,1.10
2018-09-15T03:34:48.937Z,1.40
2018-09-15T03:37:16.536Z,1.00
2018-09-15T03:39:43.262Z,0.80
2018-09-15T03:42:10.127Z,1.20
2018-09-15T03:44:36.843Z,1.17
2018-09-15T03:47:03.565Z,1.10
2018-09-15T03:49:30.338Z,1.13
2018-09-15T03:51:57.168Z,1.03
2018-09-15T03:54:23.865Z,1.27
2018-09-15T03:56:50.632Z,1.03
2018-09-15T03:59:17.320Z,1.40
2018-09-15T04:01:44.128Z,1.23
2018-09-15T04:04:10.844Z,1.17
2018-09-15T04:06:38.351Z,1.40
2018-09-15T04:09:05.184Z,1.07
2018-09-15T04:11:32.815Z,1.30
2018-09-15T04:13:59.568Z,1.00
2018-09-15T04:16:26.395Z,1.30
2018-09-15T04:18:53.154Z,1.30
2018-09-15T04:21:19.886Z,1.10
2018-09-15T04:23:46.734Z,1.30
2018-09-15T04:26:13.393Z,1.30
2018-09-15T04:28:40.073Z,1.50
2018-09-15T04:31:06.876Z,1.50
2018-09-15T04:33:33.601Z,1.57
2018-09-15T04:36:00.298Z,1.47
2018-09-15T04:38:27.831Z,1.43
2018-09-15T04:40:54.549Z,1.30
2018-09-15T04:43:21.245Z,1.37
2018-09-15T04:45:48.779Z,1.30
2018-09-15T04:48:15.454Z,1.10
2018-09-15T04:50:42.251Z,1.40
2018-09-15T04:53:08.908Z,1.33
2018-09-15T04:55:36.372Z,1.47
2018-09-15T04:58:03.194Z,1.50
2018-09-15T05:00:29.964Z,1.50
2018-09-15T05:02:57.368Z,1.60
2018-09-15T05:05:24.084Z,1.37
2018-09-15T05:07:50.847Z,1.40
2018-09-15T05:10:18.335Z,1.50
2018-09-15T05:12:45.055Z,1.50
2018-09-15T05:15:11.904Z,1.63
2018-09-15T05:17:38.720Z,1.50
2018-09-15T05:20:05.476Z,1.30
2018-09-15T05:22:32.199Z,1.43
2018-09-15T05:24:58.898Z,1.40
2018-09-15T05:27:26.342Z,1.50
2018-09-15T05:29:53.116Z,1.40
2018-09-15T05:32:20.043Z,1.50
2018-09-15T05:34:47.565Z,1.63
2018-09-15T05:37:14.472Z,1.50
2018-09-15T05:39:41.461Z,1.60
2018-09-15T05:42:09.867Z,1.63
2018-09-15T05:44:36.705Z,1.90
2018-09-15T05:47:04.629Z,1.63
2018-09-15T05:49:31.920Z,1.70
2018-09-15T05:51:59.456Z,1.60
2018-09-15T05:54:26.183Z,1.57
2018-09-15T05:56:53.079Z,1.53
2018-09-15T05:59:19.963Z,1.83
2018-09-15T06:01:46.888Z,1.60
2018-09-15T06:04:13.539Z,1.73
2018-09-15T06:06:40.234Z,1.60
2018-09-15T06:09:07.336Z,1.60
2018-09-15T06:11:35.192Z,1.70
2018-09-15T06:14:02.204Z,1.57
2018-09-15T06:16:29.084Z,1.50
2018-09-15T06:18:56.058Z,1.30
2018-09-15T06:21:23.225Z,1.30
2018-09-15T06:23:50.902Z,1.70
2018-09-15T06:26:17.819Z,1.70
2018-09-15T06:28:44.741Z,1.60
2018-09-15T06:31:11.628Z,1.40
2018-09-15T06:33:38.564Z,1.27
2018-09-15T06:36:05.424Z,1.40
2018-09-15T06:38:32.364Z,1.50
2018-09-15T06:41:00.122Z,1.23
2018-09-15T06:43:27.236Z,1.23
2018-09-15T06:45:54.527Z,1.30
2018-09-15T06:48:21.285Z,1.30
2018-09-15T06:50:49.172Z,1.50
2018-09-15T06:53:15.837Z,1.50
2018-09-15T06:55:42.811Z,1.33
2018-09-15T06:58:09.606Z,1.40
2018-09-15T07:00:36.682Z,1.50
2018-09-15T07:03:04.117Z,1.27
2018-09-15T07:05:31.805Z,1.13
2018-09-15T07:07:59.466Z,1.20
2018-09-15T07:10:27.306Z,1.13
2018-09-15T07:12:55.427Z,1.20
2018-09-15T07:15:22.614Z,1.17
2018-09-15T07:17:49.453Z,0.90
2018-09-15T07:20:16.530Z,0.90
2018-09-15T07:22:44.297Z,1.00
2018-09-15T07:25:11.107Z,1.27
2018-09-15T07:27:38.947Z,1.20
2018-09-15T07:30:06.137Z,0.90
2018-09-15T07:32:33.398Z,0.90
2018-09-15T07:35:00.893Z,0.95
2018-09-15T07:37:28.082Z,1.17
2018-09-15T07:39:55.153Z,0.93
2018-09-15T07:42:22.566Z,0.70
2018-09-15T07:44:50.478Z,1.35
2018-09-15T07:47:17.335Z,1.40
2018-09-15T07:49:44.505Z,1.12
2018-09-15T07:52:11.576Z,1.10
2018-09-15T07:54:38.487Z,1.23
2018-09-15T07:57:05.357Z,1.00
2018-09-15T07:59:32.564Z,1.20
2018-09-15T08:02:00.562Z,1.10
2018-09-15T08:04:28.253Z,1.10
2018-09-15T08:06:55.214Z,0.90
2018-09-15T08:09:22.126Z,1.27
2018-09-15T08:11:49.960Z,1.20
2018-09-15T08:14:16.830Z,1.33
2018-09-15T08:16:44.421Z,1.10
2018-09-15T08:19:11.468Z,0.97
2018-09-15T08:21:38.290Z,1.20
2018-09-15T08:24:05.223Z,1.30
2018-09-15T08:26:32.241Z,1.07
2018-09-15T08:28:59.186Z,1.23
2018-09-15T08:31:26.844Z,1.43
2018-09-15T08:33:54.612Z,1.60
2018-09-15T08:36:22.532Z,1.17
2018-09-15T08:38:50.455Z,1.43
2018-09-15T08:41:17.493Z,1.07
2018-09-15T08:43:44.347Z,1.27
2018-09-15T08:46:11.258Z,1.10
2018-09-15T08:48:38.105Z,0.90
2018-09-15T08:51:05.049Z,1.10
2018-09-15T08:53:32.706Z,1.30
2018-09-15T08:55:59.618Z,1.23
2018-09-15T08:58:27.238Z,1.37
2018-09-15T09:00:54.085Z,1.23
2018-09-15T09:03:21.019Z,1.00
2018-09-15T09:05:48.062Z,1.20
2018-09-15T09:08:15.032Z,1.07
2018-09-15T09:10:41.852Z,1.13
2018-09-15T09:13:09.001Z,1.03
2018-09-15T09:15:35.851Z,1.50
2018-09-15T09:18:03.459Z,1.00
2018-09-15T09:20:30.400Z,1.30
2018-09-15T09:22:57.384Z,1.23
2018-09-15T09:25:24.224Z,1.00
2018-09-15T09:27:50.964Z,1.25
2018-09-15T09:30:17.649Z,1.10
2018-09-15T09:32:44.498Z,1.30
2018-09-15T09:35:11.355Z,1.08
2018-09-15T09:37:38.062Z,1.25
2018-09-15T09:40:04.859Z,1.15
2018-09-15T09:42:31.644Z,1.12
2018-09-15T09:44:58.333Z,1.30
2018-09-15T09:47:25.942Z,1.02
2018-09-15T09:49:52.638Z,1.12
2018-09-15T09:52:19.331Z,1.00
2018-09-15T09:54:46.211Z,1.12
2018-09-15T09:57:13.687Z,1.27
2018-09-15T09:59:40.392Z,1.10
2018-09-15T10:02:07.217Z,1.10
2018-09-15T10:04:33.987Z,0.98
2018-09-15T10:07:01.544Z,1.27
2018-09-15T10:09:28.319Z,1.30
2018-09-15T10:11:55.271Z,1.23
2018-09-15T10:14:22.084Z,1.27
2018-09-15T10:16:48.853Z,1.40
2018-09-15T10:19:15.618Z,1.00
2018-09-15T10:21:42.345Z,1.20
2018-09-15T10:24:09.157Z,1.20
2018-09-15T10:26:36.042Z,1.20
2018-09-15T10:29:02.764Z,1.00
2018-09-15T10:31:29.527Z,0.90
2018-09-15T10:33:56.250Z,0.93
2018-09-15T10:36:23.048Z,1.10
2018-09-15T10:38:50.518Z,1.07
2018-09-15T10:41:17.318Z,1.07
2018-09-15T10:43:44.046Z,1.20
2018-09-15T10:46:10.755Z,1.23
2018-09-15T10:48:37.686Z,1.17
2018-09-15T10:51:04.456Z,0.70
2018-09-15T10:53:31.163Z,1.08
2018-09-15T10:55:58.601Z,1.45
2018-09-15T10:58:25.367Z,0.93
2018-09-15T11:00:52.239Z,1.00
2018-09-15T11:03:18.994Z,0.90
2018-09-15T11:05:46.589Z,1.00
2018-09-15T11:08:13.285Z,1.15
2018-09-15T11:10:39.983Z,1.12
2018-09-15T11:13:06.803Z,1.27
2018-09-15T11:15:34.317Z,1.02
2018-09-15T11:18:00.983Z,0.98
2018-09-15T11:20:27.808Z,0.85
2018-09-15T11:23:09.431Z,0.90
2018-09-15T11:25:36.158Z,1.10
2018-09-15T11:28:03.731Z,0.85
2018-09-15T11:30:30.469Z,0.70
2018-09-15T11:32:57.992Z,1.00
2018-09-15T11:35:24.768Z,1.08
2018-09-15T11:37:51.478Z,1.00
2018-09-15T11:40:18.183Z,0.80
2018-09-15T11:42:44.966Z,0.90
2018-09-15T11:45:11.703Z,1.00
2018-09-15T11:47:38.432Z,0.60
2018-09-15T11:50:05.221Z,0.77
2018-09-15T11:52:32.051Z,1.00
2018-09-15T11:54:58.828Z,0.60
2018-09-15T11:57:26.229Z,1.00
2018-09-15T11:59:53.054Z,0.90
2018-09-15T12:02:19.806Z,0.70
2018-09-15T12:04:46.559Z,0.82
2018-09-15T12:07:14.021Z,1.10
2018-09-15T12:09:40.909Z,0.82
2018-09-15T12:12:08.332Z,0.70
2018-09-15T12:14:35.055Z,0.80
2018-09-15T12:17:01.812Z,0.80
2018-09-15T12:19:28.600Z,0.98
2018-09-15T12:21:55.489Z,0.88
2018-09-15T12:24:22.264Z,0.80
2018-09-15T12:26:49.818Z,0.80
2018-09-15T12:29:16.554Z,0.70
2018-09-15T12:31:43.403Z,0.70
2018-09-15T12:34:10.354Z,0.70
2018-09-15T12:36:37.237Z,0.70
2018-09-15T12:39:04.070Z,0.60
2018-09-15T12:41:30.799Z,0.77
2018-09-15T12:43:57.548Z,1.10
2018-09-15T12:46:24.329Z,0.73
2018-09-15T12:48:51.002Z,0.80
2018-09-15T12:51:18.477Z,0.82
2018-09-15T12:53:45.396Z,0.88
2018-09-15T12:56:12.955Z,0.80
2018-09-15T12:58:40.448Z,0.93
2018-09-15T13:01:07.241Z,0.80
2018-09-15T13:03:33.988Z,0.62
2018-09-15T13:06:00.836Z,0.80
2018-09-15T13:08:27.648Z,0.73
2018-09-15T13:10:54.416Z,0.73
2018-09-15T13:13:21.923Z,1.00
2018-09-15T13:15:48.639Z,0.80
2018-09-15T13:18:15.352Z,0.80
2018-09-15T13:20:42.255Z,0.70
2018-09-15T13:23:09.118Z,0.82
2018-09-15T13:25:35.973Z,1.08
2018-09-15T13:28:03.252Z,0.65
2018-09-15T13:30:30.136Z,0.80
2018-09-15T13:32:57.080Z,0.80
2018-09-15T13:35:23.938Z,0.70
2018-09-15T13:37:51.104Z,0.80
2018-09-15T13:40:18.016Z,0.60
2018-09-15T13:42:45.697Z,0.60
2018-09-15T13:45:12.706Z,0.80
2018-09-15T13:47:39.559Z,0.85
2018-09-15T13:50:06.551Z,0.80
2018-09-15T13:52:34.139Z,0.62
2018-09-15T13:55:01.065Z,0.60
2018-09-15T13:57:28.054Z,0.60
2018-09-15T13:59:55.107Z,0.57
2018-09-15T14:02:22.873Z,0.60
2018-09-15T14:04:50.495Z,0.60
2018-09-15T14:07:18.321Z,0.80
2018-09-15T14:09:46.090Z,0.77
2018-09-15T14:12:12.889Z,0.60
2018-09-15T14:14:39.679Z,0.50
2018-09-15T14:17:07.375Z,0.40
2018-09-15T14:19:34.207Z,0.60
2018-09-15T14:22:01.064Z,1.67
2018-09-15T14:24:28.016Z,1.27
2018-09-15T14:26:54.931Z,1.70
2018-09-15T14:29:22.867Z,0.83
2018-09-15T14:31:50.578Z,1.70
2018-09-15T14:34:18.324Z,3.37
2018-09-15T14:36:45.579Z,0.40
2018-09-15T14:39:12.779Z,0.63
2018-09-15T14:41:39.847Z,0.60
2018-09-15T14:44:08.806Z,0.60
2018-09-15T14:46:36.596Z,0.50
2018-09-15T14:49:04.359Z,0.50
2018-09-15T14:51:31.624Z,0.47
2018-09-15T14:53:58.608Z,0.33
2018-09-15T14:56:25.559Z,0.50
2018-09-15T14:58:52.695Z,0.50
2018-09-15T15:01:20.634Z,0.40
2018-09-15T15:03:47.539Z,0.43
2018-09-15T15:06:14.339Z,0.40
2018-09-15T15:08:41.829Z,0.50
2018-09-15T15:11:09.546Z,0.40
2018-09-15T15:13:36.497Z,0.40
2018-09-15T15:16:04.028Z,0.27
2018-09-15T15:18:31.537Z,0.37
2018-09-15T15:20:58.699Z,0.60
2018-09-15T15:23:26.209Z,0.40
2018-09-15T15:25:53.293Z,0.47
2018-09-15T15:28:20.321Z,0.30
2018-09-15T15:30:47.023Z,0.40
2018-09-15T15:33:13.707Z,0.30
2018-09-15T15:35:40.655Z,0.40
2018-09-15T15:38:07.345Z,0.30
2018-09-15T15:40:34.063Z,0.40
2018-09-15T15:43:01.515Z,0.30
2018-09-15T15:45:29.026Z,0.50
2018-09-15T15:47:55.730Z,0.40
2018-09-15T15:50:23.245Z,0.20
2018-09-15T15:52:50.063Z,0.30
2018-09-15T15:55:17.187Z,0.30
2018-09-15T15:57:44.100Z,0.30
2018-09-15T16:00:11.868Z,0.50
2018-09-15T16:02:38.952Z,0.40
2018-09-15T16:05:05.855Z,0.40
2018-09-15T16:07:33.322Z,0.30
2018-09-15T16:10:00.184Z,0.50
2018-09-15T16:12:28.338Z,0.30
2018-09-15T16:14:56.436Z,0.30
2018-09-15T16:17:24.722Z,0.60
2018-09-15T16:19:51.472Z,0.47
2018-09-15T16:22:18.268Z,0.43
2018-09-15T16:24:45.290Z,0.40
2018-09-15T16:27:12.473Z,0.40
2018-09-15T16:29:39.241Z,0.33
2018-09-15T16:32:07.335Z,0.30
2018-09-15T16:34:35.771Z,0.47
2018-09-15T16:37:03.001Z,0.40
2018-09-15T16:39:30.836Z,0.50
2018-09-15T16:41:58.607Z,0.50
2018-09-15T16:44:26.207Z,0.47
2018-09-15T16:46:53.205Z,0.40
2018-09-15T16:49:20.623Z,0.40
2018-09-15T16:51:47.702Z,0.30
2018-09-15T16:54:15.329Z,0.30
2018-09-15T16:56:42.295Z,0.40
2018-09-15T16:59:09.150Z,0.40
2018-09-15T17:01:36.088Z,0.30
2018-09-15T17:04:03.859Z,0.20
2018-09-15T17:06:31.462Z,0.40
2018-09-15T17:08:58.511Z,0.40
2018-09-15T17:11:25.375Z,0.40
2018-09-15T17:13:52.492Z,0.40
2018-09-15T17:16:19.328Z,0.47
2018-09-15T17:18:46.771Z,0.40
2018-09-15T17:21:13.656Z,0.70
2018-09-15T17:23:40.639Z,0.27
2018-09-15T17:26:07.347Z,0.20
2018-09-15T17:28:34.845Z,0.30
2018-09-15T17:31:01.876Z,0.30
2018-09-15T17:33:28.840Z,0.40
2018-09-15T17:35:55.904Z,0.47
2018-09-15T17:38:23.254Z,0.40
2018-09-15T17:40:50.382Z,0.60
2018-09-15T17:43:17.252Z,0.20
2018-09-15T17:45:44.208Z,0.37
2018-09-15T17:48:11.130Z,0.57
2018-09-15T17:50:38.200Z,0.30
2018-09-15T17:53:05.219Z,0.30
2018-09-15T17:55:32.117Z,0.47
2018-09-15T17:57:58.992Z,0.40
2018-09-15T18:00:25.939Z,0.40
2018-09-15T18:02:53.706Z,0.30
2018-09-15T18:05:20.816Z,0.33
2018-09-15T18:07:48.920Z,0.40
2018-09-15T18:10:15.673Z,0.43
2018-09-15T18:12:42.719Z,0.37
2018-09-15T18:15:09.843Z,0.47
2018-09-15T18:17:37.441Z,0.30
2018-09-15T18:20:04.411Z,0.37
2018-09-15T18:22:31.331Z,0.40
2018-09-15T18:24:58.155Z,0.30
2018-09-15T18:27:25.121Z,1.00
2018-09-15T18:29:52.134Z,6.47
2018-09-15T18:32:20.129Z,1.10
2018-09-15T18:34:47.156Z,0.67
2018-09-15T18:37:14.143Z,0.30
2018-09-15T18:39:41.018Z,0.40
2018-09-15T18:42:08.012Z,0.63
2018-09-15T18:44:34.954Z,0.33
2018-09-15T18:47:02.738Z,0.37
2018-09-15T18:49:31.121Z,0.33
2018-09-15T18:51:58.623Z,0.30
2018-09-15T18:54:25.617Z,0.50
2018-09-15T18:56:52.319Z,0.40
2018-09-15T18:59:19.194Z,0.40
2018-09-15T19:01:47.189Z,0.50
2018-09-15T19:04:14.781Z,0.40
2018-09-15T19:06:42.138Z,0.40
2018-09-15T19:09:09.928Z,0.50
2018-09-15T19:11:37.521Z,0.50
2018-09-15T19:14:04.423Z,0.40
2018-09-15T19:16:31.948Z,0.20
2018-09-15T19:18:58.680Z,0.40
2018-09-15T19:21:25.483Z,0.40
2018-09-15T19:23:52.350Z,0.40
2018-09-15T19:26:19.383Z,0.40
2018-09-15T19:28:48.003Z,0.30
2018-09-15T19:31:15.677Z,0.30
2018-09-15T19:33:43.405Z,0.37
2018-09-15T19:36:10.675Z,0.40
2018-09-15T19:38:37.475Z,0.50
2018-09-15T19:41:04.192Z,0.40
2018-09-15T19:43:31.666Z,0.30
2018-09-15T19:45:59.079Z,0.30
2018-09-15T19:48:25.803Z,0.57
2018-09-15T19:50:53.381Z,0.50
2018-09-15T19:53:20.053Z,0.33
2018-09-15T19:55:47.058Z,0.40
2018-09-15T19:58:14.061Z,0.30
2018-09-15T20:00:41.178Z,0.40
2018-09-15T20:03:09.467Z,0.33
2018-09-15T20:05:36.621Z,0.40
2018-09-15T20:08:03.413Z,0.40
2018-09-15T20:10:30.103Z,0.40
2018-09-15T20:12:57.065Z,0.40
2018-09-15T20:15:24.718Z,0.43
2018-09-15T20:17:52.339Z,0.50
2018-09-15T20:20:18.868Z,0.50
2018-09-15T20:22:46.472Z,0.50
2018-09-15T20:25:13.263Z,0.40
2018-09-15T20:27:40.863Z,0.30
2018-09-15T20:30:08.337Z,0.30
2018-09-15T20:32:35.343Z,0.40
2018-09-15T20:35:02.422Z,0.23
2018-09-15T20:37:29.104Z,0.50
2018-09-15T20:39:55.782Z,0.63
2018-09-15T20:42:23.442Z,0.50
2018-09-15T20:44:50.259Z,0.30
2018-09-15T20:47:17.016Z,0.47
2018-09-15T20:49:43.696Z,0.30
2018-09-15T20:52:10.623Z,0.40
2018-09-15T20:54:37.510Z,0.40
2018-09-15T20:57:04.639Z,0.40
2018-09-15T20:59:31.552Z,0.40
2018-09-15T21:01:59.039Z,0.43
2018-09-15T21:04:26.071Z,0.50
2018-09-15T21:06:53.522Z,0.40
2018-09-15T21:09:21.514Z,0.40
2018-09-15T21:11:48.303Z,0.50
2018-09-15T21:14:15.117Z,0.53
2018-09-15T21:16:43.033Z,0.50
2018-09-15T21:19:10.202Z,0.53
2018-09-15T21:21:37.004Z,0.50
2018-09-15T21:24:04.787Z,0.40
2018-09-15T21:26:47.803Z,0.50
2018-09-15T21:29:14.660Z,0.90
2018-09-15T21:31:42.072Z,0.50
2018-09-15T21:34:08.889Z,0.40
2018-09-15T21:36:37.060Z,0.50
2018-09-15T21:39:04.756Z,0.40
2018-09-15T21:41:31.468Z,0.40
2018-09-15T21:43:58.615Z,0.57
2018-09-15T21:46:25.749Z,0.40
2018-09-15T21:48:52.796Z,0.50
2018-09-15T21:51:19.515Z,0.50
2018-09-15T21:53:47.161Z,0.57
2018-09-15T21:56:15.327Z,0.30
2018-09-15T21:58:42.000Z,0.50
2018-09-15T22:01:08.740Z,0.53
2018-09-15T22:03:35.564Z,0.50
2018-09-15T22:06:02.399Z,0.47
2018-09-15T22:08:29.366Z,0.37
2018-09-15T22:10:56.293Z,0.50
2018-09-15T22:13:23.153Z,0.50
2018-09-15T22:15:49.936Z,0.63
2018-09-15T22:18:16.655Z,0.50
2018-09-15T22:20:44.204Z,0.30
2018-09-15T22:23:10.939Z,0.60
2018-09-15T22:25:38.659Z,0.50
2018-09-15T22:28:06.165Z,0.50
2018-09-15T22:30:32.932Z,0.40
2018-09-15T22:33:01.347Z,0.60
2018-09-15T22:35:28.377Z,0.60
2018-09-15T22:37:55.849Z,0.50
2018-09-15T22:40:23.627Z,0.50
2018-09-15T22:42:50.335Z,0.40
2018-09-15T22:45:17.201Z,0.47
2018-09-15T22:47:45.462Z,0.30
2018-09-15T22:50:13.063Z,0.60
2018-09-15T22:52:40.519Z,0.40
2018-09-15T22:55:08.126Z,0.50
2018-09-15T22:57:35.956Z,0.43
2018-09-15T23:00:03.452Z,0.60
2018-09-15T23:02:30.338Z,0.40
2018-09-15T23:04:57.744Z,0.50
2018-09-15T23:07:24.518Z,0.67
2018-09-15T23:09:51.522Z,0.30
2018-09-15T23:12:18.263Z,0.50
2018-09-15T23:14:45.171Z,0.50
2018-09-15T23:17:11.984Z,0.40
2018-09-15T23:19:39.426Z,0.50
2018-09-15T23:22:07.030Z,0.57
2018-09-15T23:24:34.517Z,0.50
2018-09-15T23:27:01.265Z,0.40
2018-09-15T23:29:28.018Z,0.30
2018-09-15T23:31:54.745Z,0.40
2018-09-15T23:34:22.353Z,0.63
2018-09-15T23:36:49.910Z,0.50
2018-09-15T23:39:17.004Z,0.50
2018-09-15T23:41:44.746Z,0.40
2018-09-15T23:44:12.260Z,0.50
2018-09-15T23:46:39.640Z,0.50
2018-09-15T23:49:06.474Z,0.53
2018-09-15T23:51:33.421Z,0.30
2018-09-15T23:54:00.135Z,0.50
2018-09-15T23:56:26.919Z,0.50
2018-09-15T23:58:53.761Z,0.40
